Time;durP1;ratioP1;P1;durP2;ratioP2;P2;SDS_P1;SDS_P2;PMS_P1;PMS_P2;Temp;Humidity;BMP_temperature;BMP_pressure;BME280_temperature;BME280_humidity;BME280_pressure;Samples;Min_cycle;Max_cycle;Signal;HPM_P1;HPM_P2
2022/09/16 00:01:35;;;;;;;7.27;2.80;;;;;;;;;;10360433;28;20413;-82
2022/09/16 00:06:37;;;;;;;8.73;2.78;;;;;;;;;;10362045;28;20505;-81
2022/09/16 00:11:40;;;;;;;8.10;2.83;;;;;;;;;;10363128;28;20407;-81
2022/09/16 00:16:42;;;;;;;7.80;3.23;;;;;;;;;;10362644;28;20478;-81
2022/09/16 00:21:43;;;;;;;6.65;2.80;;;;;;;;;;10363079;28;20489;-81
2022/09/16 00:26:47;;;;;;;7.45;3.13;;;;;;;;;;10362627;28;20433;-80
2022/09/16 00:31:48;;;;;;;6.77;2.97;;;;;;;;;;10362495;28;20421;-80
2022/09/16 00:36:50;;;;;;;7.40;2.75;;;;;;;;;;10362247;28;20905;-80
2022/09/16 00:41:53;;;;;;;9.98;3.30;;;;;;;;;;10362041;28;20497;-81
2022/09/16 00:46:55;;;;;;;7.20;3.53;;;;;;;;;;10362267;28;20407;-81
2022/09/16 00:52:01;;;;;;;5.67;2.63;;;;;;;;;;10360238;28;20490;-81
2022/09/16 00:57:06;;;;;;;10.32;3.00;;;;;;;;;;10361822;28;20761;-82
2022/09/16 01:02:11;;;;;;;10.23;3.28;;;;;;;;;;10362116;28;20880;-81
2022/09/16 01:07:13;;;;;;;11.43;3.37;;;;;;;;;;10360275;28;20486;-81
2022/09/16 01:12:16;;;;;;;9.93;3.43;;;;;;;;;;10361771;28;20411;-81
2022/09/16 01:17:27;;;;;;;8.13;3.22;;;;;;;;;;10361169;28;20993;-81
2022/09/16 01:22:46;;;;;;;8.70;3.28;;;;;;;;;;10349352;28;20506;-81
2022/09/16 01:28:08;;;;;;;11.13;3.80;;;;;;;;;;10348616;28;20495;-82
2022/09/16 01:33:18;;;;;;;8.32;3.28;;;;;;;;;;10358355;28;20490;-80
2022/09/16 01:38:31;;;;;;;7.93;4.13;;;;;;;;;;10358466;28;20434;-82
2022/09/16 01:43:42;;;;;;;11.20;4.00;;;;;;;;;;10360434;28;20433;-82
2022/09/16 01:48:51;;;;;;;7.10;4.00;;;;;;;;;;10359204;28;20496;-80
2022/09/16 01:53:59;;;;;;;9.55;4.28;;;;;;;;;;10360315;28;20403;-81
2022/09/16 01:59:07;;;;;;;9.07;4.70;;;;;;;;;;10359915;28;20410;-81
2022/09/16 02:04:15;;;;;;;8.90;3.50;;;;;;;;;;10359492;28;20782;-81
2022/09/16 02:09:22;;;;;;;8.87;3.30;;;;;;;;;;10360121;28;20403;-81
2022/09/16 02:14:28;;;;;;;6.20;3.50;;;;;;;;;;10358698;28;20482;-81
2022/09/16 02:19:36;;;;;;;7.38;3.88;;;;;;;;;;10359125;28;20415;-80
2022/09/16 02:24:40;;;;;;;7.25;4.00;;;;;;;;;;10359374;28;20429;-81
2022/09/16 02:29:45;;;;;;;9.50;4.33;;;;;;;;;;10356816;28;20438;-81
2022/09/16 02:34:53;;;;;;;5.13;4.07;;;;;;;;;;10358386;28;20461;-81
2022/09/16 02:40:01;;;;;;;8.07;4.20;;;;;;;;;;10359714;28;20501;-81
2022/09/16 02:45:04;;;;;;;9.90;4.40;;;;;;;;;;10358436;28;20516;-80
2022/09/16 02:50:14;;;;;;;8.23;4.05;;;;;;;;;;10358603;28;20914;-82
2022/09/16 02:55:29;;;;;;;6.90;3.92;;;;;;;;;;10358502;28;20409;-81
2022/09/16 03:00:33;;;;;;;7.05;3.85;;;;;;;;;;10358457;28;20415;-81
2022/09/16 03:05:36;;;;;;;5.20;3.75;;;;;;;;;;10358119;28;20423;-81
2022/09/16 03:10:44;;;;;;;5.93;3.37;;;;;;;;;;10358837;28;20494;-82
2022/09/16 03:15:56;;;;;;;7.73;3.40;;;;;;;;;;10362897;28;20498;-81
2022/09/16 03:21:13;;;;;;;4.70;3.50;;;;;;;;;;10365721;28;20494;-81
2022/09/16 03:26:25;;;;;;;6.95;3.83;;;;;;;;;;10365576;28;20566;-81
2022/09/16 03:31:30;;;;;;;5.03;3.75;;;;;;;;;;10365881;28;20469;-81
2022/09/16 03:36:41;;;;;;;7.53;3.90;;;;;;;;;;10365091;28;20497;-81
2022/09/16 03:41:43;;;;;;;7.57;4.13;;;;;;;;;;10364935;28;20407;-81
2022/09/16 03:46:45;;;;;;;6.95;4.15;;;;;;;;;;10364691;28;20467;-81
2022/09/16 03:51:48;;;;;;;7.23;3.70;;;;;;;;;;10364830;28;20486;-81
2022/09/16 03:56:50;;;;;;;14.50;3.88;;;;;;;;;;10364495;28;20868;-80
2022/09/16 04:01:52;;;;;;;7.47;4.10;;;;;;;;;;10364235;28;20406;-81
2022/09/16 04:06:56;;;;;;;8.43;4.10;;;;;;;;;;10364198;28;20423;-81
2022/09/16 04:11:58;;;;;;;10.52;4.15;;;;;;;;;;10363914;28;21190;-82
2022/09/16 04:17:00;;;;;;;7.50;3.83;;;;;;;;;;10364045;28;20473;-80
2022/09/16 04:22:03;;;;;;;9.23;4.10;;;;;;;;;;10364240;28;20774;-81
2022/09/16 04:27:05;;;;;;;12.45;4.20;;;;;;;;;;10362660;28;20431;-82
2022/09/16 04:32:07;;;;;;;8.70;3.85;;;;;;;;;;10362123;28;20407;-79
2022/09/16 04:37:10;;;;;;;9.07;3.60;;;;;;;;;;10362188;28;20821;-80
2022/09/16 04:42:12;;;;;;;7.83;4.43;;;;;;;;;;10361147;28;20490;-81
2022/09/16 04:47:14;;;;;;;9.70;4.20;;;;;;;;;;10361827;28;20437;-81
2022/09/16 04:52:17;;;;;;;6.43;4.17;;;;;;;;;;10359018;28;20597;-80
2022/09/16 04:57:19;;;;;;;7.18;4.30;;;;;;;;;;10360238;28;20415;-82
2022/09/16 05:02:21;;;;;;;9.43;4.32;;;;;;;;;;10362293;28;20482;-82
2022/09/16 05:07:24;;;;;;;7.10;4.18;;;;;;;;;;10360470;28;20533;-81
2022/09/16 05:12:26;;;;;;;7.55;4.03;;;;;;;;;;10360412;28;20410;-82
2022/09/16 05:17:29;;;;;;;9.70;3.88;;;;;;;;;;10355585;28;20405;-80
2022/09/16 05:22:33;;;;;;;5.00;3.63;;;;;;;;;;10358750;28;20634;-82
2022/09/16 05:27:35;;;;;;;8.93;3.57;;;;;;;;;;10358883;28;20974;-80
2022/09/16 05:32:36;;;;;;;5.97;3.50;;;;;;;;;;10358602;28;20407;-81
2022/09/16 05:37:39;;;;;;;5.23;3.50;;;;;;;;;;10358217;28;20841;-81
2022/09/16 05:42:42;;;;;;;7.22;3.58;;;;;;;;;;10357995;28;20479;-80
2022/09/16 05:47:47;;;;;;;6.90;3.55;;;;;;;;;;10359690;28;20769;-82
2022/09/16 05:52:50;;;;;;;6.05;3.67;;;;;;;;;;10358339;28;20810;-81
2022/09/16 05:57:52;;;;;;;11.02;3.90;;;;;;;;;;10359003;28;20501;-82
2022/09/16 06:02:54;;;;;;;12.43;4.00;;;;;;;;;;10359384;28;20395;-82
2022/09/16 06:07:57;;;;;;;7.47;3.50;;;;;;;;;;10355814;28;20518;-81
2022/09/16 06:12:59;;;;;;;8.80;3.80;;;;;;;;;;10360071;28;20410;-82
2022/09/16 06:18:01;;;;;;;6.73;3.60;;;;;;;;;;10358863;28;20403;-82
2022/09/16 06:23:04;;;;;;;8.33;3.60;;;;;;;;;;10359137;28;20406;-82
2022/09/16 06:28:06;;;;;;;8.20;3.33;;;;;;;;;;10357819;28;21091;-80
2022/09/16 06:33:10;;;;;;;6.57;3.60;;;;;;;;;;10358205;28;20409;-81
2022/09/16 06:38:13;;;;;;;7.07;3.77;;;;;;;;;;10358153;28;20501;-81
2022/09/16 06:43:14;;;;;;;10.48;3.45;;;;;;;;;;10357648;28;21029;-80
2022/09/16 06:48:16;;;;;;;7.78;3.80;;;;;;;;;;10359036;28;20411;-81
2022/09/16 06:53:19;;;;;;;8.70;3.77;;;;;;;;;;10366060;28;20490;-81
2022/09/16 06:58:21;;;;;;;6.85;3.53;;;;;;;;;;10366461;28;20510;-80
2022/09/16 07:03:23;;;;;;;7.65;3.47;;;;;;;;;;10365508;28;21302;-81
2022/09/16 07:08:28;;;;;;;9.60;3.53;;;;;;;;;;10365840;28;20425;-81
2022/09/16 07:13:30;;;;;;;9.30;3.80;;;;;;;;;;10365064;28;20850;-81
2022/09/16 07:18:32;;;;;;;5.50;2.63;;;;;;;;;;10381602;22;20426;-91
2022/09/16 07:23:38;;;;;;;3.63;2.30;;;;;;;;;;10371668;28;20453;-92
2022/09/16 07:28:41;;;;;;;7.07;2.20;;;;;;;;;;10375624;28;20409;-91
2022/09/16 07:33:46;;;;;;;3.28;2.00;;;;;;;;;;10382037;28;20494;-92
2022/09/16 07:38:50;;;;;;;4.30;1.83;;;;;;;;;;10362449;28;20422;-91
2022/09/16 07:43:54;;;;;;;5.72;1.80;;;;;;;;;;10384489;28;20460;-91
2022/09/16 07:48:56;;;;;;;2.20;1.30;;;;;;;;;;10357660;28;20440;-92
2022/09/16 07:54:03;;;;;;;8.23;1.77;;;;;;;;;;10386583;28;20509;-92
2022/09/16 07:59:08;;;;;;;5.15;1.75;;;;;;;;;;10380171;28;20423;-92
2022/09/16 08:04:10;;;;;;;4.30;1.40;;;;;;;;;;10386537;28;20402;-93
2022/09/16 08:09:14;;;;;;;3.50;1.38;;;;;;;;;;10372278;28;20497;-94
2022/09/16 08:14:16;;;;;;;3.92;1.30;;;;;;;;;;10367466;28;20416;-91
2022/09/16 08:19:18;;;;;;;3.22;1.40;;;;;;;;;;10404272;28;20441;-92
2022/09/16 08:24:22;;;;;;;5.05;1.73;;;;;;;;;;10404011;28;20417;-90
2022/09/16 08:29:24;;;;;;;6.82;1.90;;;;;;;;;;10393572;28;20429;-92
2022/09/16 08:34:26;;;;;;;3.58;1.50;;;;;;;;;;10384846;28;20502;-91
2022/09/16 08:39:30;;;;;;;3.38;1.40;;;;;;;;;;10393274;28;20493;-93
2022/09/16 08:44:40;;;;;;;3.47;1.75;;;;;;;;;;10383065;28;20778;-91
2022/09/16 08:49:45;;;;;;;4.93;1.50;;;;;;;;;;10401677;28;20492;-91
2022/09/16 08:54:53;;;;;;;4.93;1.70;;;;;;;;;;10405311;28;20413;-91
2022/09/16 08:59:59;;;;;;;3.78;1.40;;;;;;;;;;10402360;28;20429;-92
2022/09/16 09:05:02;;;;;;;5.10;1.58;;;;;;;;;;10399316;28;20430;-91
2022/09/16 09:10:23;;;;;;;5.10;1.43;;;;;;;;;;10392246;28;20428;-90
2022/09/16 09:15:35;;;;;;;2.97;1.45;;;;;;;;;;10402617;28;20484;-91
2022/09/16 09:20:46;;;;;;;5.70;1.40;;;;;;;;;;10389666;28;20423;-90
2022/09/16 09:25:58;;;;;;;7.03;1.73;;;;;;;;;;10400973;28;20512;-93
2022/09/16 09:31:09;;;;;;;7.10;1.85;;;;;;;;;;10400562;28;20413;-92
2022/09/16 09:36:21;;;;;;;5.53;1.47;;;;;;;;;;10398116;28;20467;-91
2022/09/16 09:41:30;;;;;;;4.30;1.60;;;;;;;;;;10387125;28;20421;-91
2022/09/16 09:46:37;;;;;;;5.68;1.60;;;;;;;;;;10374768;28;20527;-91
2022/09/16 09:51:44;;;;;;;5.15;1.42;;;;;;;;;;10389145;28;20429;-94
2022/09/16 09:56:50;;;;;;;7.03;1.60;;;;;;;;;;10378993;28;20510;-93
2022/09/16 10:01:55;;;;;;;6.50;1.90;;;;;;;;;;10405223;28;20804;-93
2022/09/16 10:06:58;;;;;;;4.68;1.70;;;;;;;;;;10404468;28;20413;-94
2022/09/16 10:12:02;;;;;;;4.25;1.40;;;;;;;;;;10403733;28;20433;-90
2022/09/16 10:17:14;;;;;;;5.93;1.30;;;;;;;;;;10385508;28;20441;-90
2022/09/16 10:22:23;;;;;;;4.95;1.27;;;;;;;;;;10365814;28;20498;-92
2022/09/16 10:27:32;;;;;;;1.67;1.00;;;;;;;;;;10337042;28;20429;-92
2022/09/16 10:32:45;;;;;;;5.15;1.42;;;;;;;;;;10342629;28;20414;-91
2022/09/16 10:37:56;;;;;;;4.70;1.40;;;;;;;;;;10329105;28;20903;-90
2022/09/16 10:43:04;;;;;;;3.13;1.20;;;;;;;;;;10338500;28;20436;-92
2022/09/16 10:48:11;;;;;;;4.87;1.10;;;;;;;;;;10340799;28;20517;-90
2022/09/16 10:53:23;;;;;;;2.80;0.85;;;;;;;;;;10343429;28;20888;-91
2022/09/16 10:58:27;;;;;;;5.13;1.03;;;;;;;;;;10345751;28;20413;-91
2022/09/16 11:03:57;;;;;;;3.78;1.10;;;;;;;;;;10348508;28;20413;-91
2022/09/16 11:09:08;;;;;;;3.22;1.08;;;;;;;;;;10342767;28;20853;-91
2022/09/16 11:14:25;;;;;;;3.30;1.20;;;;;;;;;;10330158;28;20467;-91
2022/09/16 11:19:31;;;;;;;2.00;1.00;;;;;;;;;;10326736;28;20501;-90
2022/09/16 11:24:57;;;;;;;4.23;1.20;;;;;;;;;;10340608;28;20820;-93
2022/09/16 11:30:09;;;;;;;4.70;1.10;;;;;;;;;;10338850;28;20448;-93
2022/09/16 11:35:33;;;;;;;4.25;1.15;;;;;;;;;;10350121;28;20455;-94
2022/09/16 11:40:46;;;;;;;3.90;1.20;;;;;;;;;;10343362;28;20413;-95
2022/09/16 11:45:55;;;;;;;2.85;1.40;;;;;;;;;;10355441;28;20418;-94
2022/09/16 11:51:07;;;;;;;3.08;1.20;;;;;;;;;;10350031;28;20414;-93
2022/09/16 11:56:15;;;;;;;5.75;1.30;;;;;;;;;;10343567;28;20516;-94
2022/09/16 12:01:29;;;;;;;4.93;1.20;;;;;;;;;;10347744;28;20458;-93
2022/09/16 12:06:39;;;;;;;5.82;1.23;;;;;;;;;;10350403;28;21215;-94
2022/09/16 12:11:46;;;;;;;6.23;1.87;;;;;;;;;;10366277;28;20911;-93
2022/09/16 12:16:54;;;;;;;4.87;1.63;;;;;;;;;;10367968;28;20931;-94
2022/09/16 12:22:04;;;;;;;5.05;1.58;;;;;;;;;;10376789;28;20587;-94
2022/09/16 12:27:13;;;;;;;7.43;1.60;;;;;;;;;;10370714;28;20447;-94
2022/09/16 12:32:23;;;;;;;5.85;1.52;;;;;;;;;;10367190;28;20418;-93
2022/09/16 12:37:34;;;;;;;3.15;1.70;;;;;;;;;;10376253;28;20417;-94
2022/09/16 12:43:05;;;;;;;5.30;1.38;;;;;;;;;;10357477;28;20768;-92
2022/09/16 12:48:35;;;;;;;2.90;1.50;;;;;;;;;;10348469;28;20428;-87
2022/09/16 12:53:54;;;;;;;5.25;1.80;;;;;;;;;;10365693;28;20485;-93
2022/09/16 12:59:21;;;;;;;3.53;1.77;;;;;;;;;;10343894;28;20487;-92
2022/09/16 13:04:31;;;;;;;5.60;1.77;;;;;;;;;;10342760;28;20459;-94
2022/09/16 13:09:37;;;;;;;4.95;1.80;;;;;;;;;;10343378;28;20420;-94
2022/09/16 13:14:45;;;;;;;3.03;1.73;;;;;;;;;;10351611;28;20440;-94
2022/09/16 13:19:51;;;;;;;4.00;1.77;;;;;;;;;;10341521;28;20495;-94
2022/09/16 13:25:02;;;;;;;6.73;2.20;;;;;;;;;;10353437;28;20415;-93
2022/09/16 13:30:17;;;;;;;7.25;2.08;;;;;;;;;;10360575;28;20917;-94
2022/09/16 13:35:36;;;;;;;5.40;1.70;;;;;;;;;;10351721;28;20480;-92
2022/09/16 13:40:38;;;;;;;2.92;1.55;;;;;;;;;;10337479;28;20947;-96
2022/09/16 13:45:42;;;;;;;4.70;2.00;;;;;;;;;;10350429;28;20445;-94
2022/09/16 13:50:51;;;;;;;3.77;1.70;;;;;;;;;;10347507;28;22256;-94
2022/09/16 13:55:56;;;;;;;3.87;1.73;;;;;;;;;;10355269;28;20440;-93
2022/09/16 14:01:07;;;;;;;4.70;1.77;;;;;;;;;;10380407;28;20488;-94
2022/09/16 14:06:24;;;;;;;7.55;2.00;;;;;;;;;;10353718;28;20481;-94
2022/09/16 14:11:35;;;;;;;4.25;1.77;;;;;;;;;;10405624;28;20413;-95
2022/09/16 14:16:41;;;;;;;7.73;2.03;;;;;;;;;;10352002;28;20420;-89
2022/09/16 14:21:45;;;;;;;4.20;1.60;;;;;;;;;;10337862;28;20441;-90
2022/09/16 14:26:51;;;;;;;4.93;1.70;;;;;;;;;;10330177;28;20463;-90
2022/09/16 14:31:56;;;;;;;4.55;1.70;;;;;;;;;;10326050;28;20417;-90
2022/09/16 14:37:00;;;;;;;4.75;1.65;;;;;;;;;;10325368;28;21256;-90
2022/09/16 14:42:06;;;;;;;4.07;1.83;;;;;;;;;;10333223;28;20874;-91
2022/09/16 14:47:18;;;;;;;4.80;1.80;;;;;;;;;;10328807;28;20424;-91
2022/09/16 14:52:24;;;;;;;4.53;1.70;;;;;;;;;;10326728;28;20423;-91
2022/09/16 14:57:28;;;;;;;6.32;1.90;;;;;;;;;;10328216;28;20852;-91
2022/09/16 15:02:34;;;;;;;3.25;1.38;;;;;;;;;;10325047;28;20904;-91
2022/09/16 15:07:39;;;;;;;5.70;1.70;;;;;;;;;;10347242;28;20509;-91
2022/09/16 15:12:48;;;;;;;5.28;1.83;;;;;;;;;;10402708;28;20451;-91
2022/09/16 15:17:54;;;;;;;4.97;1.60;;;;;;;;;;10357789;28;20523;-90
2022/09/16 15:22:58;;;;;;;4.97;1.37;;;;;;;;;;10337002;28;20850;-91
2022/09/16 15:28:08;;;;;;;5.78;1.60;;;;;;;;;;10345743;28;20431;-90
2022/09/16 15:33:25;;;;;;;4.00;1.40;;;;;;;;;;10353851;28;20409;-90
2022/09/16 15:38:30;;;;;;;4.60;1.40;;;;;;;;;;10373874;28;20463;-91
2022/09/16 15:43:35;;;;;;;3.30;1.50;;;;;;;;;;10366002;28;20483;-91
2022/09/16 15:48:44;;;;;;;2.70;1.42;;;;;;;;;;10371170;28;20429;-90
2022/09/16 15:53:49;;;;;;;4.32;1.42;;;;;;;;;;10364103;28;20489;-89
2022/09/16 15:58:57;;;;;;;5.47;1.40;;;;;;;;;;10348879;28;21290;-92
2022/09/16 16:04:01;;;;;;;3.28;1.40;;;;;;;;;;10332417;28;20533;-92
2022/09/16 16:09:04;;;;;;;4.30;1.80;;;;;;;;;;10332283;28;20432;-92
2022/09/16 16:14:11;;;;;;;6.77;1.60;;;;;;;;;;10348711;28;20506;-92
2022/09/16 16:19:13;;;;;;;3.03;1.50;;;;;;;;;;10327536;28;20419;-87
2022/09/16 16:24:17;;;;;;;3.00;1.38;;;;;;;;;;10341773;28;20430;-88
2022/09/16 16:29:18;;;;;;;5.22;1.50;;;;;;;;;;10336764;28;20516;-88
2022/09/16 16:34:20;;;;;;;3.78;1.60;;;;;;;;;;10324533;28;20961;-88
2022/09/16 16:39:24;;;;;;;6.60;1.90;;;;;;;;;;10327266;28;20516;-93
2022/09/16 16:44:26;;;;;;;5.65;1.42;;;;;;;;;;10346616;28;20508;-93
2022/09/16 16:49:28;;;;;;;2.17;1.10;;;;;;;;;;10352072;28;20508;-93
2022/09/16 16:54:32;;;;;;;4.28;1.52;;;;;;;;;;10343130;28;20471;-90
2022/09/16 16:59:33;;;;;;;6.60;1.10;;;;;;;;;;10327284;28;20436;-89
2022/09/16 17:04:35;;;;;;;3.97;1.20;;;;;;;;;;10335748;28;20490;-92
2022/09/16 17:09:39;;;;;;;2.90;1.10;;;;;;;;;;10334200;28;20464;-91
2022/09/16 17:14:41;;;;;;;3.85;1.55;;;;;;;;;;10345664;28;20426;-91
2022/09/16 17:19:43;;;;;;;5.32;1.70;;;;;;;;;;10334062;28;20428;-91
2022/09/16 17:24:46;;;;;;;4.40;1.30;;;;;;;;;;10382193;28;20765;-92
2022/09/16 17:29:49;;;;;;;3.40;1.65;;;;;;;;;;10383125;28;20932;-92
2022/09/16 17:34:54;;;;;;;4.43;1.20;;;;;;;;;;10362102;28;20413;-93
2022/09/16 17:39:57;;;;;;;4.45;1.52;;;;;;;;;;10392751;28;20430;-91
2022/09/16 17:45:04;;;;;;;8.10;1.90;;;;;;;;;;10360811;28;20462;-92
2022/09/16 17:50:07;;;;;;;7.85;2.35;;;;;;;;;;10344976;28;20436;-92
2022/09/16 17:55:11;;;;;;;2.93;1.10;;;;;;;;;;10353408;28;20513;-92
2022/09/16 18:00:15;;;;;;;2.13;1.08;;;;;;;;;;10347911;28;20832;-92
2022/09/16 18:05:17;;;;;;;3.40;1.10;;;;;;;;;;10353848;28;20488;-93
2022/09/16 18:10:22;;;;;;;2.23;0.90;;;;;;;;;;10341607;28;20419;-92
2022/09/16 18:15:24;;;;;;;2.77;0.90;;;;;;;;;;10345411;28;20422;-93
2022/09/16 18:20:26;;;;;;;4.55;1.20;;;;;;;;;;10356589;28;20802;-92
2022/09/16 18:25:29;;;;;;;1.17;0.85;;;;;;;;;;10351071;28;20456;-92
2022/09/16 18:30:31;;;;;;;1.87;0.87;;;;;;;;;;10341309;28;20506;-93
2022/09/16 18:35:35;;;;;;;3.90;1.10;;;;;;;;;;10341822;28;20425;-92
2022/09/16 18:40:39;;;;;;;4.43;1.20;;;;;;;;;;10341760;28;20432;-93
2022/09/16 18:45:41;;;;;;;4.45;1.27;;;;;;;;;;10340468;28;20970;-92
2022/09/16 18:50:43;;;;;;;2.58;1.20;;;;;;;;;;10359103;28;21084;-93
2022/09/16 18:55:47;;;;;;;1.80;1.10;;;;;;;;;;10364227;28;20442;-92
2022/09/16 19:00:49;;;;;;;2.25;1.17;;;;;;;;;;10358454;28;20416;-93
2022/09/16 19:05:55;;;;;;;2.20;0.93;;;;;;;;;;10359023;28;20820;-89
2022/09/16 19:11:02;;;;;;;2.20;0.80;;;;;;;;;;10338139;28;20823;-89
2022/09/16 19:16:04;;;;;;;1.70;0.85;;;;;;;;;;10362854;28;21060;-90
2022/09/16 19:21:06;;;;;;;2.80;1.08;;;;;;;;;;10340513;28;20920;-89
2022/09/16 19:26:10;;;;;;;2.30;1.20;;;;;;;;;;10355727;22;20413;-84
2022/09/16 19:31:14;;;;;;;2.50;0.95;;;;;;;;;;10338142;28;20995;-83
2022/09/16 19:36:17;;;;;;;3.00;1.10;;;;;;;;;;10344673;28;20998;-81
2022/09/16 19:41:22;;;;;;;1.98;0.93;;;;;;;;;;10351343;28;20815;-81
2022/09/16 19:46:25;;;;;;;2.05;0.85;;;;;;;;;;10338135;28;20416;-82
2022/09/16 19:51:27;;;;;;;1.80;1.00;;;;;;;;;;10341816;28;20495;-81
2022/09/16 19:56:33;;;;;;;2.83;1.10;;;;;;;;;;10345645;28;20448;-81
2022/09/16 20:01:36;;;;;;;3.63;1.13;;;;;;;;;;10339532;28;20984;-81
2022/09/16 20:06:39;;;;;;;1.95;0.80;;;;;;;;;;10327798;28;20490;-82
2022/09/16 20:11:45;;;;;;;1.87;0.90;;;;;;;;;;10324360;28;20475;-81
2022/09/16 20:16:48;;;;;;;0.75;0.50;;;;;;;;;;10323595;28;20401;-81
2022/09/16 20:21:49;;;;;;;0.40;0.40;;;;;;;;;;10323674;28;20499;-81
2022/09/16 20:26:56;;;;;;;2.73;0.60;;;;;;;;;;10326776;28;20435;-81
2022/09/16 20:31:57;;;;;;;0.95;0.50;;;;;;;;;;10323502;28;20424;-81
2022/09/16 20:36:59;;;;;;;1.05;0.50;;;;;;;;;;10329247;28;20408;-82
2022/09/16 20:42:02;;;;;;;2.88;0.90;;;;;;;;;;10339565;28;20430;-81
2022/09/16 20:47:04;;;;;;;2.20;0.50;;;;;;;;;;10349490;28;20456;-83
2022/09/16 20:52:06;;;;;;;2.20;0.47;;;;;;;;;;10347502;28;20927;-82
2022/09/16 20:57:09;;;;;;;1.63;0.33;;;;;;;;;;10356302;28;20887;-81
2022/09/16 21:02:11;;;;;;;2.08;0.50;;;;;;;;;;10357279;28;20397;-81
2022/09/16 21:07:13;;;;;;;1.20;0.40;;;;;;;;;;10366640;28;20430;-81
2022/09/16 21:12:17;;;;;;;1.40;0.23;;;;;;;;;;10358266;28;20411;-80
2022/09/16 21:17:20;;;;;;;0.60;0.20;;;;;;;;;;10339339;28;20521;-82
2022/09/16 21:22:22;;;;;;;1.00;0.20;;;;;;;;;;10338164;28;20468;-83
2022/09/16 21:27:25;;;;;;;0.60;0.17;;;;;;;;;;10338273;28;20424;-82
2022/09/16 21:32:27;;;;;;;0.40;0.30;;;;;;;;;;10361536;28;20433;-82
2022/09/16 21:37:29;;;;;;;0.45;0.10;;;;;;;;;;10358547;28;20399;-82
2022/09/16 21:42:33;;;;;;;0.32;0.10;;;;;;;;;;10345713;28;20409;-82
2022/09/16 21:47:35;;;;;;;0.50;0.10;;;;;;;;;;10348252;28;20465;-81
2022/09/16 21:52:37;;;;;;;0.55;0.20;;;;;;;;;;10335014;28;20759;-81
2022/09/16 21:57:40;;;;;;;0.40;0.10;;;;;;;;;;10320918;28;20411;-81
2022/09/16 22:02:42;;;;;;;1.08;0.40;;;;;;;;;;10330607;28;20495;-81
2022/09/16 22:07:45;;;;;;;1.45;0.00;;;;;;;;;;10360496;28;20422;-82
2022/09/16 22:12:48;;;;;;;1.53;0.00;;;;;;;;;;10358031;28;20456;-81
2022/09/16 22:17:53;;;;;;;0.00;0.00;;;;;;;;;;10357447;28;20490;-80
2022/09/16 22:22:55;;;;;;;0.20;0.03;;;;;;;;;;10321913;28;20412;-81
2022/09/16 22:27:58;;;;;;;0.20;0.10;;;;;;;;;;10329589;28;20426;-80
2022/09/16 22:33:00;;;;;;;0.30;0.10;;;;;;;;;;10325028;28;20404;-81
2022/09/16 22:38:02;;;;;;;0.32;0.10;;;;;;;;;;10320299;28;20405;-81
2022/09/16 22:43:06;;;;;;;0.80;0.10;;;;;;;;;;10326565;28;20406;-81
2022/09/16 22:48:07;;;;;;;0.60;0.00;;;;;;;;;;10342984;28;20429;-81
2022/09/16 22:53:09;;;;;;;0.98;0.40;;;;;;;;;;10349476;28;20395;-81
2022/09/16 22:58:12;;;;;;;0.10;0.10;;;;;;;;;;10349820;28;20490;-81
2022/09/16 23:03:16;;;;;;;1.00;0.10;;;;;;;;;;10350494;28;20486;-80
2022/09/16 23:08:18;;;;;;;0.30;0.20;;;;;;;;;;10332971;28;20424;-81
2022/09/16 23:13:22;;;;;;;0.10;0.08;;;;;;;;;;10360506;28;20481;-81
2022/09/16 23:18:24;;;;;;;1.30;0.10;;;;;;;;;;10355249;28;20762;-81
2022/09/16 23:23:26;;;;;;;0.10;0.10;;;;;;;;;;10346385;28;20519;-81
2022/09/16 23:28:29;;;;;;;0.17;0.10;;;;;;;;;;10355904;28;20518;-81
2022/09/16 23:33:31;;;;;;;0.22;0.10;;;;;;;;;;10362827;28;20399;-81
2022/09/16 23:38:35;;;;;;;0.60;0.13;;;;;;;;;;10364939;28;20557;-81
2022/09/16 23:43:41;;;;;;;0.40;0.13;;;;;;;;;;10365262;28;20465;-82
2022/09/16 23:48:43;;;;;;;2.08;0.30;;;;;;;;;;10363317;28;20423;-81
2022/09/16 23:53:45;;;;;;;1.52;0.20;;;;;;;;;;10362926;28;20399;-81
2022/09/16 23:58:49;;;;;;;0.50;0.20;;;;;;;;;;10361305;28;20399;-82
